Eizo Maru — JD2944 — position and weather

sailwx.info

Track history (hours):
 
Tides and Currents Weather Stations Pressure Air Temp Water Temp Dewpoint Dewpoint Depression Visibility Wind Speed Wind Dir Waves Ship Positions

Eizo Maru

Last reported at 2017-Jan-20 13:31 UTC. Time now 2017-Jan-20 13:55 UTC.
Position N 35°29' E 139°48'.

Length 80 m; draft 4.8 m.

Type: Tanker. MMSI: 431000976.

Date/timePositionNaut miles runAvg speedWind from/ knotsBaromVisibWave heightAir tempDewpointWater temp
2017-Jan-20 13:31N 35°29' E 139°48'0 0.0
2017-Jan-20 12:31N 35°29' E 139°48'0 0.0
2017-Jan-20 11:31N 35°29' E 139°48'0 0.0
2017-Jan-20 10:31N 35°29' E 139°48'0 0.0
2017-Jan-20 09:31N 35°29' E 139°48'0 0.0
2017-Jan-20 08:28N 35°29' E 139°48'0 0.0
2017-Jan-20 07:31N 35°29' E 139°48'0 0.0
2017-Jan-20 06:31N 35°29' E 139°48'0 0.0
2017-Jan-20 05:31N 35°29' E 139°48'0 0.0
2017-Jan-20 04:31N 35°29' E 139°48'0 0.0
2017-Jan-20 03:31N 35°29' E 139°48'0 0.1
2017-Jan-20 02:31N 35°29' E 139°48'0 0.0
2017-Jan-20 01:31N 35°29' E 139°48'0 0.0
2017-Jan-20 00:31N 35°29' E 139°48'0 0.0
2017-Jan-19 23:31N 35°29' E 139°48'0 0.0
2017-Jan-19 22:31N 35°29' E 139°48'0 0.0
2017-Jan-19 21:31N 35°29' E 139°48'0 0.0
2017-Jan-19 20:31N 35°29' E 139°48'0 0.0
2017-Jan-19 19:31N 35°29' E 139°48'0 0.0
2017-Jan-19 18:31N 35°29' E 139°48'1 0.6
2017-Jan-19 17:33N 35°28' E 139°48'1211.9
2017-Jan-19 16:33N 35°17' E 139°46'  
2017-Jan-17 06:32N 35°14' E 139°46'1111.6
2017-Jan-17 05:34N 35°25' E 139°44'6 5.8
2017-Jan-17 04:32N 35°31' E 139°46'0 0.0
2017-Jan-17 03:32N 35°31' E 139°46'0 0.0
2017-Jan-17 02:32N 35°31' E 139°46'0 0.0
2017-Jan-17 01:32N 35°31' E 139°46'3 3.0
2017-Jan-17 00:33N 35°30' E 139°50'0 0.0
2017-Jan-16 23:28N 35°30' E 139°50'0 0.0
2017-Jan-16 22:31N 35°30' E 139°50'0 0.0
2017-Jan-16 21:31N 35°30' E 139°50'0 0.0
2017-Jan-16 20:31N 35°30' E 139°50'0 0.0
2017-Jan-16 19:31N 35°30' E 139°50'0 0.0
2017-Jan-16 18:31N 35°30' E 139°50'0 0.0
2017-Jan-16 17:31N 35°30' E 139°50'0 0.0
2017-Jan-16 16:31N 35°30' E 139°50'0 0.0
2017-Jan-16 15:31N 35°30' E 139°50'0 0.0
2017-Jan-16 14:31N 35°30' E 139°50'0 0.0
2017-Jan-16 13:31N 35°30' E 139°50'0 0.0
2017-Jan-16 12:31N 35°30' E 139°50'0 0.0
2017-Jan-16 11:31N 35°30' E 139°50'7 7.4
2017-Jan-16 10:33N 35°31' E 139°59'2 0.2
2017-Jan-15 23:17N 35°31' E 140°02'2 2.5
2017-Jan-15 22:22N 35°32' E 139°59'0 0.0
2017-Jan-15 21:22N 35°32' E 139°59'0 0.0
2017-Jan-15 19:22N 35°32' E 139°59'0 0.0
2017-Jan-15 16:25N 35°32' E 139°59'0 0.0
2017-Jan-15 15:28N 35°32' E 139°59'0 0.1
2017-Jan-15 14:22N 35°32' E 139°59'0 0.0
2017-Jan-15 13:31N 35°32' E 139°59'0 0.0
2017-Jan-15 10:31N 35°32' E 139°59'0 0.0
2017-Jan-15 09:16N 35°32' E 139°59'0 0.0
2017-Jan-15 08:28N 35°32' E 139°59'0 0.0
2017-Jan-15 07:31N 35°32' E 139°59'0 0.0
2017-Jan-14 22:04N 35°32' E 139°59'0 0.0
2017-Jan-14 21:22N 35°32' E 139°59'0 0.0
2017-Jan-14 20:31N 35°32' E 139°59'0 0.0
2017-Jan-14 19:22N 35°32' E 139°59'0 0.0
2017-Jan-14 18:28N 35°32' E 139°59'0 0.0
2017-Jan-14 16:31N 35°32' E 139°59'0 0.0
2017-Jan-14 15:25N 35°32' E 139°59'0 0.0
2017-Jan-14 14:31N 35°32' E 139°59'0 0.0
2017-Jan-14 13:19N 35°32' E 139°59'0 0.0
2017-Jan-14 11:22N 35°32' E 139°59'0 0.0
2017-Jan-14 09:25N 35°32' E 139°59'0 0.0
2017-Jan-14 08:31N 35°32' E 139°59'0 0.0
2017-Jan-14 06:13N 35°32' E 139°59'3 4.9
2017-Jan-14 05:32N 35°31' E 139°55'1212.5
2017-Jan-14 04:33N 35°21' E 139°45'24010.0
2017-Jan-13 04:32N 34°07' E 135°07'0 0.0
2017-Jan-12 22:05N 34°07' E 135°07'1 1.2
2017-Jan-12 21:33N 34°08' E 135°07'3 0.9
2017-Jan-12 18:32N 34°07' E 135°04'  
Track history (hours):
 
Tides and Currents Weather Stations Pressure Air Temp Water Temp Dewpoint Dewpoint Depression Visibility Wind Speed Wind Dir Waves Ship Positions

Eizo Maru

Last reported at 2017-Jan-20 13:31 UTC. Time now 2017-Jan-20 13:55 UTC.
Position N 35°29' E 139°48'.

Length 80 m; draft 4.8 m.

Type: Tanker. MMSI: 431000976.

Date/timePositionNaut miles runAvg speedWind from/ knotsBaromVisibWave heightAir tempDewpointWater temp
2017-Jan-20 13:31N 35°29' E 139°48'0 0.0
2017-Jan-20 12:31N 35°29' E 139°48'0 0.0
2017-Jan-20 11:31N 35°29' E 139°48'0 0.0
2017-Jan-20 10:31N 35°29' E 139°48'0 0.0
2017-Jan-20 09:31N 35°29' E 139°48'0 0.0
2017-Jan-20 08:28N 35°29' E 139°48'0 0.0
2017-Jan-20 07:31N 35°29' E 139°48'0 0.0
2017-Jan-20 06:31N 35°29' E 139°48'0 0.0
2017-Jan-20 05:31N 35°29' E 139°48'0 0.0
2017-Jan-20 04:31N 35°29' E 139°48'0 0.0
2017-Jan-20 03:31N 35°29' E 139°48'0 0.1
2017-Jan-20 02:31N 35°29' E 139°48'0 0.0
2017-Jan-20 01:31N 35°29' E 139°48'0 0.0
2017-Jan-20 00:31N 35°29' E 139°48'0 0.0
2017-Jan-19 23:31N 35°29' E 139°48'0 0.0
2017-Jan-19 22:31N 35°29' E 139°48'0 0.0
2017-Jan-19 21:31N 35°29' E 139°48'0 0.0
2017-Jan-19 20:31N 35°29' E 139°48'0 0.0
2017-Jan-19 19:31N 35°29' E 139°48'0 0.0
2017-Jan-19 18:31N 35°29' E 139°48'1 0.6
2017-Jan-19 17:33N 35°28' E 139°48'1211.9
2017-Jan-19 16:33N 35°17' E 139°46'  
2017-Jan-17 06:32N 35°14' E 139°46'1111.6
2017-Jan-17 05:34N 35°25' E 139°44'6 5.8
2017-Jan-17 04:32N 35°31' E 139°46'0 0.0
2017-Jan-17 03:32N 35°31' E 139°46'0 0.0
2017-Jan-17 02:32N 35°31' E 139°46'0 0.0
2017-Jan-17 01:32N 35°31' E 139°46'3 3.0
2017-Jan-17 00:33N 35°30' E 139°50'0 0.0
2017-Jan-16 23:28N 35°30' E 139°50'0 0.0
2017-Jan-16 22:31N 35°30' E 139°50'0 0.0
2017-Jan-16 21:31N 35°30' E 139°50'0 0.0
2017-Jan-16 20:31N 35°30' E 139°50'0 0.0
2017-Jan-16 19:31N 35°30' E 139°50'0 0.0
2017-Jan-16 18:31N 35°30' E 139°50'0 0.0
2017-Jan-16 17:31N 35°30' E 139°50'0 0.0
2017-Jan-16 16:31N 35°30' E 139°50'0 0.0
2017-Jan-16 15:31N 35°30' E 139°50'0 0.0
2017-Jan-16 14:31N 35°30' E 139°50'0 0.0
2017-Jan-16 13:31N 35°30' E 139°50'0 0.0
2017-Jan-16 12:31N 35°30' E 139°50'0 0.0
2017-Jan-16 11:31N 35°30' E 139°50'7 7.4
2017-Jan-16 10:33N 35°31' E 139°59'2 0.2
2017-Jan-15 23:17N 35°31' E 140°02'2 2.5
2017-Jan-15 22:22N 35°32' E 139°59'0 0.0
2017-Jan-15 21:22N 35°32' E 139°59'0 0.0
2017-Jan-15 19:22N 35°32' E 139°59'0 0.0
2017-Jan-15 16:25N 35°32' E 139°59'0 0.0
2017-Jan-15 15:28N 35°32' E 139°59'0 0.1
2017-Jan-15 14:22N 35°32' E 139°59'0 0.0
2017-Jan-15 13:31N 35°32' E 139°59'0 0.0
2017-Jan-15 10:31N 35°32' E 139°59'0 0.0
2017-Jan-15 09:16N 35°32' E 139°59'0 0.0
2017-Jan-15 08:28N 35°32' E 139°59'0 0.0
2017-Jan-15 07:31N 35°32' E 139°59'0 0.0
2017-Jan-14 22:04N 35°32' E 139°59'0 0.0
2017-Jan-14 21:22N 35°32' E 139°59'0 0.0
2017-Jan-14 20:31N 35°32' E 139°59'0 0.0
2017-Jan-14 19:22N 35°32' E 139°59'0 0.0
2017-Jan-14 18:28N 35°32' E 139°59'0 0.0
2017-Jan-14 16:31N 35°32' E 139°59'0 0.0
2017-Jan-14 15:25N 35°32' E 139°59'0 0.0
2017-Jan-14 14:31N 35°32' E 139°59'0 0.0
2017-Jan-14 13:19N 35°32' E 139°59'0 0.0
2017-Jan-14 11:22N 35°32' E 139°59'0 0.0
2017-Jan-14 09:25N 35°32' E 139°59'0 0.0
2017-Jan-14 08:31N 35°32' E 139°59'0 0.0
2017-Jan-14 06:13N 35°32' E 139°59'3 4.9
2017-Jan-14 05:32N 35°31' E 139°55'1212.5
2017-Jan-14 04:33N 35°21' E 139°45'24010.0
2017-Jan-13 04:32N 34°07' E 135°07'0 0.0
2017-Jan-12 22:05N 34°07' E 135°07'1 1.2
2017-Jan-12 21:33N 34°08' E 135°07'3 0.9
2017-Jan-12 18:32N 34°07' E 135°04'  

Dump ship's entire track history